Time;durP1;ratioP1;P1;durP2;ratioP2;P2;SDS_P1;SDS_P2;PMS_P1;PMS_P2;Temp;Humidity;BMP_temperature;BMP_pressure;BME280_temperature;BME280_humidity;BME280_pressure;Samples;Min_cycle;Max_cycle;Signal;HPM_P1;HPM_P2
2022/05/07 00:01:19;;;;;;;14.13;8.53;;;10.60;99.90;;;;;;8334903;28;20189;-80
2022/05/07 00:05:19;;;;;;;12.97;8.83;;;10.50;99.90;;;;;;8345246;28;20585;-79
2022/05/07 00:09:20;;;;;;;9.37;8.37;;;10.60;99.90;;;;;;8323990;28;20186;-80
2022/05/07 00:13:21;;;;;;;10.07;7.37;;;10.60;99.90;;;;;;8327178;28;20193;-81
2022/05/07 00:21:41;;;;;;;10.33;7.87;;;10.60;99.90;;;;;;8345579;28;20269;-81
2022/05/07 00:25:41;;;;;;;9.37;7.70;;;10.60;1.00;;;;;;8327683;28;20214;-80
2022/05/07 00:29:42;;;;;;;10.00;7.53;;;10.50;99.90;;;;;;8325342;28;20278;-79
2022/05/07 00:33:43;;;;;;;9.73;7.63;;;10.50;1.00;;;;;;8327124;28;20256;-79
2022/05/07 00:37:44;;;;;;;12.97;9.47;;;10.50;1.00;;;;;;8330391;28;20272;-79
2022/05/07 00:41:45;;;;;;;16.87;9.67;;;10.50;99.90;;;;;;8327841;28;20285;-81
2022/05/07 00:45:46;;;;;;;11.60;9.67;;;10.30;1.00;;;;;;8327742;28;20220;-81
2022/05/07 00:49:49;;;;;;;11.73;9.67;;;10.30;31.90;;;;;;8325707;28;20570;-78
2022/05/07 00:53:51;;;;;;;12.70;9.00;;;10.30;96.00;;;;;;8326543;28;20276;-81
2022/05/07 00:57:54;;;;;;;18.20;12.00;;;10.30;99.90;;;;;;8321077;28;20196;-81
2022/05/07 01:01:57;;;;;;;16.90;11.83;;;10.30;99.90;;;;;;8337315;28;20262;-79
2022/05/07 01:05:59;;;;;;;13.13;10.33;;;10.20;99.90;;;;;;8332973;28;20244;-78
2022/05/07 01:10:01;;;;;;;10.50;8.20;;;10.20;99.90;;;;;;8334771;28;20192;-81
2022/05/07 01:14:02;;;;;;;13.03;9.67;;;10.20;99.90;;;;;;8321238;28;20187;-80
2022/05/07 01:18:03;;;;;;;15.10;10.43;;;10.30;99.90;;;;;;8332222;28;20187;-80
2022/05/07 01:22:04;;;;;;;13.07;9.83;;;10.30;99.90;;;;;;8334079;28;20194;-78
2022/05/07 01:26:05;;;;;;;12.27;9.27;;;10.30;99.90;;;;;;8332887;28;20205;-80
2022/05/07 01:30:07;;;;;;;12.43;9.53;;;10.30;99.90;;;;;;8339664;28;20221;-79
2022/05/07 01:34:07;;;;;;;12.70;10.47;;;10.30;99.90;;;;;;8343637;28;20270;-80
2022/05/07 01:38:08;;;;;;;17.27;11.03;;;10.30;99.90;;;;;;8322931;28;20190;-80
2022/05/07 01:42:09;;;;;;;20.87;13.10;;;10.20;99.90;;;;;;8331026;28;20190;-81
2022/05/07 01:50:29;;;;;;;15.37;9.93;;;10.10;99.90;;;;;;8346141;28;20193;-80
2022/05/07 01:54:30;;;;;;;14.37;9.50;;;10.10;99.90;;;;;;8334322;28;20190;-81
2022/05/07 01:58:31;;;;;;;13.00;9.50;;;10.10;99.90;;;;;;8332635;28;20191;-79
2022/05/07 02:02:32;;;;;;;12.83;9.00;;;10.10;99.90;;;;;;8335042;28;20201;-79
2022/05/07 02:06:33;;;;;;;13.90;9.10;;;10.20;99.90;;;;;;8333089;28;20217;-80
2022/05/07 02:10:33;;;;;;;11.10;8.63;;;10.20;99.90;;;;;;8348392;28;20178;-77
2022/05/07 02:14:35;;;;;;;10.97;9.07;;;10.20;99.90;;;;;;8352256;28;20264;-81
2022/05/07 02:18:36;;;;;;;12.93;8.67;;;10.20;99.90;;;;;;8336039;28;20189;-79
2022/05/07 02:22:38;;;;;;;11.77;9.23;;;10.10;99.90;;;;;;8331922;28;20206;-80
2022/05/07 02:26:39;;;;;;;12.37;9.70;;;10.10;99.90;;;;;;8327741;28;20244;-81
2022/05/07 02:30:39;;;;;;;12.43;8.83;;;10.10;99.90;;;;;;8335333;28;20182;-80
2022/05/07 02:34:42;;;;;;;11.93;8.80;;;10.10;99.90;;;;;;8331381;28;20181;-79
2022/05/07 02:38:42;;;;;;;10.87;8.63;;;10.10;99.90;;;;;;8330867;28;20199;-79
2022/05/07 02:42:44;;;;;;;10.53;8.33;;;10.00;99.90;;;;;;8332989;28;20182;-79
2022/05/07 02:46:45;;;;;;;11.40;8.60;;;10.00;99.90;;;;;;8335074;28;20220;-78
2022/05/07 02:50:46;;;;;;;9.43;8.13;;;9.90;99.90;;;;;;8333243;28;20182;-80
2022/05/07 02:54:46;;;;;;;10.40;8.57;;;9.90;99.90;;;;;;8332316;28;20190;-80
2022/05/07 02:58:47;;;;;;;10.57;8.73;;;9.80;99.90;;;;;;8332647;28;20217;-79
2022/05/07 03:02:48;;;;;;;10.43;8.20;;;9.70;99.90;;;;;;8330658;28;20186;-79
2022/05/07 03:06:52;;;;;;;11.50;8.47;;;9.70;99.90;;;;;;8346431;28;20288;-79
2022/05/07 03:10:53;;;;;;;13.40;9.70;;;9.70;99.90;;;;;;8333602;28;20280;-81
2022/05/07 03:14:54;;;;;;;9.97;8.97;;;9.70;99.90;;;;;;8331274;28;20193;-79
2022/05/07 03:18:54;;;;;;;13.87;10.30;;;9.60;99.90;;;;;;8344056;28;20439;-81
2022/05/07 03:22:55;;;;;;;15.63;12.00;;;9.60;99.90;;;;;;8324939;28;20186;-81
2022/05/07 03:26:56;;;;;;;14.80;10.57;;;9.60;99.90;;;;;;8326429;28;20209;-79
2022/05/07 03:30:57;;;;;;;12.33;9.20;;;9.50;99.90;;;;;;8327150;28;20264;-79
2022/05/07 03:34:58;;;;;;;12.63;10.00;;;9.60;99.90;;;;;;8326526;28;20186;-80
2022/05/07 03:38:58;;;;;;;13.57;9.77;;;9.60;99.90;;;;;;8327111;28;20205;-79
2022/05/07 03:42:59;;;;;;;13.53;10.97;;;9.70;99.90;;;;;;8327642;28;20198;-79
2022/05/07 03:47:00;;;;;;;18.73;14.13;;;9.80;99.90;;;;;;8328139;28;21463;-80
2022/05/07 03:51:01;;;;;;;23.67;17.80;;;9.80;99.90;;;;;;8327319;28;20214;-80
2022/05/07 03:55:02;;;;;;;29.50;20.83;;;9.80;99.90;;;;;;8328029;28;20193;-80
2022/05/07 03:59:03;;;;;;;37.43;22.63;;;9.90;99.90;;;;;;8348324;28;20291;-81
2022/05/07 04:03:04;;;;;;;34.77;22.10;;;10.60;99.90;;;;;;8326098;28;20224;-80
2022/05/07 04:07:05;;;;;;;24.17;16.70;;;11.30;99.90;;;;;;8345547;28;20300;-78
2022/05/07 04:11:06;;;;;;;14.77;10.73;;;11.80;99.90;;;;;;8328834;28;20184;-78
2022/05/07 04:15:08;;;;;;;14.70;9.60;;;12.40;1.00;;;;;;8329131;28;20257;-79
2022/05/07 04:19:11;;;;;;;11.10;9.13;;;13.10;99.90;;;;;;8332211;28;20280;-80
2022/05/07 04:23:12;;;;;;;13.47;8.67;;;14.00;99.90;;;;;;8328132;28;20193;-79
2022/05/07 04:27:12;;;;;;;12.97;9.13;;;14.70;99.90;;;;;;8327419;28;20443;-80
2022/05/07 04:31:16;;;;;;;8.60;7.60;;;15.30;1.00;;;;;;8328192;28;20277;-80
2022/05/07 04:35:17;;;;;;;10.33;8.33;;;15.60;99.90;;;;;;8333395;28;20224;-80
2022/05/07 04:39:18;;;;;;;11.57;8.00;;;15.60;99.90;;;;;;8329221;28;20198;-79
2022/05/07 04:43:21;;;;;;;8.47;7.37;;;15.80;99.90;;;;;;8317022;28;20189;-80
2022/05/07 04:47:21;;;;;;;10.30;7.80;;;16.10;99.90;;;;;;8327933;28;20216;-78
2022/05/07 04:51:22;;;;;;;11.80;9.27;;;16.40;53.50;;;;;;8328427;28;20186;-79
2022/05/07 04:55:23;;;;;;;9.73;8.37;;;16.30;1.00;;;;;;8320900;28;20197;-78
2022/05/07 04:59:25;;;;;;;11.67;9.30;;;15.80;1.00;;;;;;8326388;28;20186;-78
2022/05/07 05:03:26;;;;;;;12.23;8.73;;;15.00;99.90;;;;;;8331274;28;20262;-80
2022/05/07 05:07:26;;;;;;;12.03;9.67;;;14.40;99.90;;;;;;8339707;28;20277;-80
2022/05/07 05:11:27;;;;;;;11.40;9.43;;;13.90;1.00;;;;;;8327668;28;20181;-80
2022/05/07 05:15:28;;;;;;;12.77;9.60;;;13.80;99.90;;;;;;8323881;28;20209;-79
2022/05/07 05:19:29;;;;;;;14.40;10.37;;;13.80;99.90;;;;;;8341593;28;20185;-79
2022/05/07 05:23:30;;;;;;;11.17;8.83;;;13.90;99.90;;;;;;8328593;28;20190;-80
2022/05/07 05:27:31;;;;;;;12.13;9.30;;;14.00;99.90;;;;;;8327925;28;20198;-79
2022/05/07 05:31:32;;;;;;;9.33;7.70;;;14.20;99.90;;;;;;8329410;28;20271;-81
2022/05/07 05:35:33;;;;;;;9.50;7.30;;;14.40;39.00;;;;;;8325102;28;20197;-80
2022/05/07 05:39:34;;;;;;;10.77;7.40;;;14.60;1.00;;;;;;8341274;28;20297;-78
2022/05/07 05:43:35;;;;;;;9.30;7.37;;;14.80;99.90;;;;;;8347184;28;20209;-80
2022/05/07 05:47:36;;;;;;;9.27;7.33;;;15.00;99.90;;;;;;8324920;28;20178;-81
2022/05/07 05:51:37;;;;;;;10.27;7.60;;;15.30;99.90;;;;;;8335827;28;20265;-80
2022/05/07 05:55:38;;;;;;;10.07;7.17;;;15.50;99.90;;;;;;8330314;28;20264;-78
2022/05/07 05:59:38;;;;;;;7.93;6.70;;;15.70;37.70;;;;;;8333152;28;20182;-81
2022/05/07 06:03:39;;;;;;;8.63;7.23;;;15.80;45.70;;;;;;8349730;28;20185;-81
2022/05/07 06:07:40;;;;;;;8.07;6.80;;;16.10;14.20;;;;;;8330985;28;20182;-80
2022/05/07 06:11:41;;;;;;;9.30;7.00;;;16.30;93.20;;;;;;8332764;28;20189;-79
2022/05/07 06:15:45;;;;;;;8.03;6.37;;;16.50;65.70;;;;;;8331022;28;20197;-80
2022/05/07 06:19:46;;;;;;;9.23;6.27;;;16.90;1.00;;;;;;8329165;28;20188;-81
2022/05/07 06:23:47;;;;;;;9.57;6.77;;;17.20;1.00;;;;;;8329246;28;20210;-80
2022/05/07 06:27:48;;;;;;;8.43;7.13;;;17.40;1.00;;;;;;8331091;28;20197;-80
2022/05/07 06:32:14;;;;;;;12.83;6.13;;;16.70;1.00;;;;;;8339590;28;20178;-80
2022/05/07 06:36:15;;;;;;;9.00;5.93;;;16.20;1.00;;;;;;8330484;28;20258;-80
2022/05/07 06:40:16;;;;;;;7.50;6.40;;;16.30;1.00;;;;;;8336294;28;20217;-80
2022/05/07 06:44:18;;;;;;;9.37;6.30;;;16.50;1.00;;;;;;8348613;28;20218;-81
2022/05/07 06:48:18;;;;;;;9.27;6.07;;;16.60;1.00;;;;;;8333962;28;20193;-80
2022/05/07 06:52:19;;;;;;;6.33;5.33;;;17.00;1.00;;;;;;8333588;28;20565;-78
2022/05/07 06:56:20;;;;;;;7.93;5.33;;;17.50;99.90;;;;;;8334447;28;20197;-77
2022/05/07 07:00:21;;;;;;;8.23;5.63;;;17.90;99.90;;;;;;8333644;28;20182;-81
2022/05/07 07:04:22;;;;;;;7.10;4.80;;;18.30;99.90;;;;;;8335810;28;20554;-83
2022/05/07 07:08:24;;;;;;;6.67;4.30;;;18.50;99.90;;;;;;8331995;28;20189;-78
2022/05/07 07:12:24;;;;;;;7.70;4.73;;;18.60;99.90;;;;;;8337948;28;20194;-79
2022/05/07 07:16:25;;;;;;;5.67;4.53;;;18.60;99.90;;;;;;8337881;28;20196;-82
2022/05/07 07:20:26;;;;;;;4.80;3.80;;;18.90;99.90;;;;;;8329724;28;20194;-81
2022/05/07 07:24:28;;;;;;;5.63;3.63;;;19.30;99.90;;;;;;8347388;28;20217;-78
2022/05/07 07:28:29;;;;;;;4.30;3.30;;;19.60;99.90;;;;;;8333319;28;20220;-79
2022/05/07 07:32:29;;;;;;;5.23;3.03;;;19.80;99.90;;;;;;8329954;28;20185;-76
2022/05/07 07:36:30;;;;;;;6.67;3.03;;;20.00;99.90;;;;;;8331895;28;20273;-80
2022/05/07 07:40:31;;;;;;;4.03;2.47;;;20.10;54.40;;;;;;8331424;28;20210;-78
2022/05/07 07:44:32;;;;;;;5.13;3.60;;;19.90;85.40;;;;;;8331995;28;20241;-79
2022/05/07 07:48:33;;;;;;;6.97;2.73;;;19.50;35.80;;;;;;8339481;28;20194;-78
2022/05/07 07:52:34;;;;;;;3.50;1.60;;;19.20;55.50;;;;;;8337101;28;20197;-83
2022/05/07 07:56:35;;;;;;;2.00;1.20;;;18.80;1.50;;;;;;8341506;28;20272;-81
2022/05/07 08:00:37;;;;;;;1.83;1.23;;;18.90;1.00;;;;;;8326016;28;20205;-80
2022/05/07 08:04:38;;;;;;;4.13;1.60;;;18.90;1.00;;;;;;8331795;28;20205;-77
2022/05/07 08:12:58;;;;;;;4.90;3.37;;;18.70;1.00;;;;;;8347997;28;20250;-81
2022/05/07 08:16:59;;;;;;;2.90;2.10;;;18.50;1.00;;;;;;8335382;28;20190;-77
2022/05/07 08:20:59;;;;;;;5.50;2.63;;;18.50;1.00;;;;;;8332957;28;20203;-78
2022/05/07 08:25:01;;;;;;;3.60;1.90;;;18.50;16.00;;;;;;8343339;28;20225;-77
2022/05/07 08:29:02;;;;;;;3.63;2.00;;;18.40;1.00;;;;;;8324640;28;20281;-78
2022/05/07 08:33:07;;;;;;;3.03;1.80;;;18.30;1.00;;;;;;8326905;28;20190;-78
2022/05/07 08:37:09;;;;;;;4.47;2.00;;;18.50;1.00;;;;;;8334176;28;20217;-78
2022/05/07 08:41:11;;;;;;;2.43;1.30;;;18.80;1.00;;;;;;8338541;28;20210;-78
2022/05/07 08:45:12;;;;;;;4.07;1.23;;;19.30;1.00;;;;;;8324387;28;20240;-78
2022/05/07 08:49:13;;;;;;;1.80;1.17;;;19.90;1.00;;;;;;8333723;28;20193;-81
2022/05/07 08:53:14;;;;;;;1.80;1.10;;;20.70;1.00;;;;;;8327458;28;20198;-78
2022/05/07 08:57:16;;;;;;;1.50;1.20;;;21.50;1.00;;;;;;8329975;28;20182;-77
2022/05/07 09:01:17;;;;;;;3.10;1.47;;;22.00;1.00;;;;;;8325026;28;20192;-81
2022/05/07 09:05:19;;;;;;;2.20;1.37;;;22.20;1.00;;;;;;8328213;28;20209;-77
2022/05/07 09:09:20;;;;;;;5.03;1.30;;;22.20;1.00;;;;;;8329909;28;20209;-80
2022/05/07 09:13:21;;;;;;;4.13;1.80;;;22.60;1.00;;;;;;8331663;28;20181;-78
2022/05/07 09:17:22;;;;;;;9.80;2.90;;;22.90;1.00;;;;;;8341391;28;20256;-80
2022/05/07 09:21:26;;;;;;;3.93;1.83;;;23.10;1.00;;;;;;8323327;28;20248;-77
2022/05/07 09:25:30;;;;;;;2.17;1.40;;;22.90;1.00;;;;;;8322800;28;20221;-77
2022/05/07 09:29:32;;;;;;;1.97;1.10;;;22.80;1.00;;;;;;8332553;28;20300;-77
2022/05/07 09:33:33;;;;;;;3.43;1.20;;;22.90;1.00;;;;;;8333497;28;20183;-81
2022/05/07 09:37:36;;;;;;;1.73;1.40;;;22.90;1.00;;;;;;8330428;28;20291;-78
2022/05/07 09:41:38;;;;;;;2.30;1.30;;;23.20;1.00;;;;;;8326597;28;20216;-81
2022/05/07 09:45:41;;;;;;;1.10;0.90;;;23.10;1.00;;;;;;8330993;28;20214;-78
2022/05/07 09:58:40;;;;;;;2.77;1.50;;;23.30;1.00;;;;;;8345614;28;20209;-78
2022/05/07 10:03:05;;;;;;;3.83;2.00;;;23.30;1.00;;;;;;8331814;28;20268;-81
2022/05/07 10:07:47;;;;;;;1.43;1.03;;;22.90;1.00;;;;;;8325638;28;20209;-80
2022/05/07 10:11:56;;;;;;;17.23;5.23;;;23.10;1.00;;;;;;8349488;28;20186;-78
2022/05/07 10:15:59;;;;;;;6.37;2.10;;;23.30;1.00;;;;;;8341451;28;20248;-78
2022/05/07 10:20:09;;;;;;;2.60;2.07;;;23.50;1.00;;;;;;8327316;28;20300;-78
2022/05/07 10:24:18;;;;;;;5.80;4.27;;;23.60;1.00;;;;;;8329930;28;20477;-81
2022/05/07 10:28:19;;;;;;;4.40;2.20;;;23.70;1.00;;;;;;8329081;28;20194;-81
2022/05/07 10:32:22;;;;;;;2.13;1.70;;;23.80;1.00;;;;;;8334918;28;20185;-78
2022/05/07 10:36:35;;;;;;;3.60;1.10;;;24.00;1.00;;;;;;8337446;28;20240;-79
2022/05/07 10:40:36;;;;;;;2.33;1.30;;;23.80;1.00;;;;;;8323171;28;20304;-78
2022/05/07 10:44:41;;;;;;;2.40;1.40;;;23.30;1.00;;;;;;8325631;28;20202;-79
2022/05/07 10:48:48;;;;;;;3.53;1.60;;;22.80;1.00;;;;;;8340033;28;20185;-81
2022/05/07 10:52:56;;;;;;;1.67;1.20;;;22.30;1.00;;;;;;8331438;28;20207;-78
2022/05/07 10:56:58;;;;;;;1.30;1.20;;;22.50;1.00;;;;;;8328993;28;20269;-77
2022/05/07 11:00:59;;;;;;;1.77;1.20;;;22.60;1.00;;;;;;8326608;28;20185;-81
2022/05/07 11:05:00;;;;;;;1.60;0.93;;;22.80;1.00;;;;;;8328364;28;20205;-77
2022/05/07 11:09:01;;;;;;;3.83;1.30;;;23.20;1.00;;;;;;8327867;28;20189;-81
2022/05/07 11:13:09;;;;;;;2.20;1.43;;;23.60;1.00;;;;;;8332204;28;20506;-78
2022/05/07 11:17:10;;;;;;;4.80;2.30;;;23.30;1.00;;;;;;8337977;28;20193;-78
2022/05/07 11:21:12;;;;;;;9.13;5.57;;;23.30;1.00;;;;;;8322279;28;20221;-77
2022/05/07 11:25:12;;;;;;;2.50;1.70;;;23.40;1.00;;;;;;8337940;28;20213;-78
2022/05/07 11:29:13;;;;;;;2.60;1.40;;;23.40;1.00;;;;;;8331433;28;20637;-81
2022/05/07 11:33:23;;;;;;;4.00;2.00;;;23.30;1.00;;;;;;8329489;28;20204;-78
2022/05/07 11:37:24;;;;;;;4.57;2.73;;;23.20;1.00;;;;;;8326511;28;20182;-81
2022/05/07 11:41:25;;;;;;;2.53;1.63;;;23.20;1.00;;;;;;8327929;28;20316;-82
2022/05/07 11:45:29;;;;;;;1.70;1.30;;;23.40;1.00;;;;;;8330668;28;20202;-78
2022/05/07 11:49:34;;;;;;;3.73;1.40;;;23.80;1.00;;;;;;8322426;28;20197;-81
2022/05/07 11:53:36;;;;;;;4.37;1.67;;;24.00;1.00;;;;;;8323708;28;20187;-81
2022/05/07 11:57:37;;;;;;;3.10;1.43;;;24.10;1.00;;;;;;8348392;28;20191;-79
2022/05/07 12:01:38;;;;;;;2.77;1.70;;;24.20;1.00;;;;;;8331934;28;20273;-77
2022/05/07 12:05:44;;;;;;;1.80;1.40;;;24.30;1.00;;;;;;8342786;28;20602;-81
2022/05/07 12:09:44;;;;;;;1.67;1.27;;;24.60;1.00;;;;;;8325376;28;20183;-82
2022/05/07 12:13:46;;;;;;;3.13;1.20;;;24.80;1.00;;;;;;8339248;28;20202;-78
2022/05/07 12:17:53;;;;;;;1.93;1.60;;;25.00;1.00;;;;;;8343856;28;20182;-77
2022/05/07 12:30:20;;;;;;;1.53;1.20;;;23.50;1.00;;;;;;8338295;28;20264;-78
2022/05/07 12:34:22;;;;;;;3.83;1.40;;;23.20;1.00;;;;;;8324293;28;20284;-78
2022/05/07 12:38:23;;;;;;;1.67;1.13;;;23.20;1.00;;;;;;8343480;28;20263;-79
2022/05/07 12:42:24;;;;;;;3.57;1.40;;;23.20;1.00;;;;;;8325499;28;20196;-78
2022/05/07 12:46:25;;;;;;;3.73;1.93;;;22.70;1.00;;;;;;8322446;28;20210;-82
2022/05/07 12:50:26;;;;;;;1.83;1.57;;;22.50;1.00;;;;;;8325643;28;20190;-79
2022/05/07 12:54:27;;;;;;;2.70;1.30;;;22.70;1.00;;;;;;8325078;28;20274;-82
2022/05/07 12:58:28;;;;;;;2.07;1.20;;;23.10;1.00;;;;;;8333593;28;20189;-79
2022/05/07 13:02:30;;;;;;;2.17;1.37;;;22.90;1.00;;;;;;8318884;28;20194;-79
2022/05/07 13:06:31;;;;;;;2.00;1.20;;;22.50;1.00;;;;;;8330715;28;20222;-78
2022/05/07 13:10:33;;;;;;;2.00;1.20;;;22.50;1.00;;;;;;8326138;28;20185;-78
2022/05/07 13:14:35;;;;;;;3.37;1.10;;;22.80;1.00;;;;;;8327205;28;20189;-76
2022/05/07 13:18:36;;;;;;;1.20;1.10;;;22.90;1.00;;;;;;8331315;28;20204;-78
2022/05/07 13:22:38;;;;;;;1.87;1.10;;;23.30;1.00;;;;;;8325672;28;20508;-80
2022/05/07 13:26:39;;;;;;;3.73;1.20;;;23.70;1.00;;;;;;8329269;28;20297;-80
2022/05/07 13:30:41;;;;;;;2.07;1.30;;;24.30;1.00;;;;;;8320258;28;20193;-78
2022/05/07 13:34:42;;;;;;;4.87;1.70;;;24.60;1.00;;;;;;8319315;28;20225;-77
2022/05/07 13:38:43;;;;;;;2.97;1.40;;;24.50;1.00;;;;;;8328518;28;20211;-78
2022/05/07 13:42:44;;;;;;;1.70;1.23;;;24.80;1.00;;;;;;8324821;28;20188;-77
2022/05/07 13:46:45;;;;;;;2.07;1.30;;;25.10;1.00;;;;;;8325468;28;20206;-78
2022/05/07 13:50:47;;;;;;;2.33;1.10;;;25.40;1.00;;;;;;8328628;28;20193;-81
2022/05/07 13:54:47;;;;;;;1.40;0.98;;;24.80;1.00;;;;;;8325098;28;20601;-78
2022/05/07 13:58:48;;;;;;;1.48;1.23;;;24.80;1.00;;;;;;8321217;28;20197;-78
2022/05/07 14:02:49;;;;;;;1.70;1.00;;;24.40;1.00;;;;;;8318576;28;20182;-81
2022/05/07 14:06:50;;;;;;;2.17;1.30;;;24.20;1.00;;;;;;8328698;28;20206;-78
2022/05/07 14:10:51;;;;;;;7.57;4.20;;;23.70;1.00;;;;;;8327052;28;20189;-78
2022/05/07 14:14:51;;;;;;;1.70;1.00;;;22.90;1.00;;;;;;8329346;28;20194;-78
2022/05/07 14:18:52;;;;;;;1.43;0.90;;;22.70;1.00;;;;;;8333319;28;20182;-77
2022/05/07 14:22:53;;;;;;;2.57;1.03;;;23.10;1.00;;;;;;8346328;28;20194;-77
2022/05/07 14:26:54;;;;;;;1.63;1.20;;;23.00;1.00;;;;;;8328437;28;20226;-77
2022/05/07 14:30:58;;;;;;;2.07;0.97;;;22.60;1.00;;;;;;8346686;28;20268;-77
2022/05/07 14:34:58;;;;;;;8.47;6.10;;;22.10;1.00;;;;;;8331959;28;20191;-77
2022/05/07 14:39:00;;;;;;;1.87;1.10;;;21.80;1.00;;;;;;8340695;28;20205;-82
2022/05/07 14:43:02;;;;;;;1.87;0.97;;;21.90;1.00;;;;;;8334067;28;20185;-81
2022/05/07 14:47:04;;;;;;;2.63;0.90;;;21.80;1.00;;;;;;8327129;28;20301;-81
2022/05/07 14:51:05;;;;;;;4.37;2.00;;;21.80;1.00;;;;;;8327129;28;20541;-77
2022/05/07 14:55:06;;;;;;;1.73;1.40;;;21.90;1.00;;;;;;8327439;28;20304;-77
2022/05/07 14:59:09;;;;;;;2.50;1.57;;;22.00;1.00;;;;;;8333862;28;20197;-77
2022/05/07 15:03:09;;;;;;;5.20;2.80;;;22.20;1.00;;;;;;8322384;28;20279;-77
2022/05/07 15:07:10;;;;;;;2.60;1.67;;;22.30;1.00;;;;;;8329152;28;20213;-77
2022/05/07 15:11:11;;;;;;;7.27;3.07;;;22.30;1.00;;;;;;8345477;28;20181;-81
2022/05/07 15:15:12;;;;;;;5.67;3.00;;;22.20;1.00;;;;;;8333291;28;20198;-81
2022/05/07 15:19:13;;;;;;;3.77;2.17;;;22.30;1.00;;;;;;8329271;28;20181;-76
2022/05/07 15:23:14;;;;;;;4.47;2.60;;;22.30;1.00;;;;;;8331447;28;20190;-81
2022/05/07 15:27:15;;;;;;;2.70;1.60;;;22.50;1.00;;;;;;8332617;28;20415;-76
2022/05/07 15:31:15;;;;;;;5.30;2.90;;;22.50;1.00;;;;;;8322297;28;20189;-77
2022/05/07 15:39:35;;;;;;;3.47;1.40;;;22.30;1.00;;;;;;8336031;28;20240;-78
2022/05/07 15:43:36;;;;;;;2.70;1.40;;;22.30;1.00;;;;;;8323717;28;20194;-78
2022/05/07 15:47:38;;;;;;;3.80;1.40;;;22.40;1.00;;;;;;8349738;28;20632;-76
2022/05/07 15:51:43;;;;;;;2.47;1.23;;;22.20;1.00;;;;;;8330287;28;20196;-77
2022/05/07 15:55:44;;;;;;;2.43;1.77;;;22.20;1.00;;;;;;8325758;28;20517;-77
2022/05/07 15:59:45;;;;;;;3.07;1.80;;;22.10;1.00;;;;;;8329181;28;20197;-77
2022/05/07 16:03:46;;;;;;;2.17;1.20;;;22.10;1.00;;;;;;8323354;28;20216;-78
2022/05/07 16:07:48;;;;;;;1.40;1.13;;;22.00;1.00;;;;;;8333100;28;20209;-81
2022/05/07 16:11:49;;;;;;;1.70;1.30;;;21.70;1.00;;;;;;8344505;28;20179;-81
2022/05/07 16:15:54;;;;;;;2.97;1.03;;;21.70;1.00;;;;;;8343451;28;20190;-79
2022/05/07 16:19:55;;;;;;;2.50;1.13;;;21.60;1.00;;;;;;8332044;28;20189;-80
2022/05/07 16:28:15;;;;;;;1.93;1.27;;;21.70;1.00;;;;;;8342710;28;20213;-77
2022/05/07 16:32:16;;;;;;;2.87;1.10;;;21.70;1.00;;;;;;8318839;28;20182;-78
2022/05/07 16:36:17;;;;;;;1.70;1.10;;;21.50;1.00;;;;;;8324420;28;20194;-82
2022/05/07 16:40:18;;;;;;;2.37;1.40;;;21.40;1.00;;;;;;8327136;28;20206;-81
2022/05/07 16:44:18;;;;;;;3.17;1.60;;;21.20;1.00;;;;;;8320158;28;20194;-79
2022/05/07 16:48:19;;;;;;;2.17;1.30;;;21.20;1.00;;;;;;8325910;28;20231;-82
2022/05/07 16:52:20;;;;;;;1.63;1.20;;;21.20;1.00;;;;;;8324911;28;20183;-81
2022/05/07 16:56:21;;;;;;;2.20;1.40;;;21.30;1.00;;;;;;8328247;28;20194;-77
2022/05/07 17:00:22;;;;;;;1.60;1.20;;;21.30;1.00;;;;;;8331414;28;20182;-76
2022/05/07 17:04:24;;;;;;;1.57;1.20;;;21.20;1.00;;;;;;8323444;28;20221;-76
2022/05/07 17:08:26;;;;;;;2.30;1.00;;;21.20;1.00;;;;;;8322590;28;20224;-82
2022/05/07 17:12:27;;;;;;;1.87;1.10;;;21.20;1.00;;;;;;8320184;28;20213;-77
2022/05/07 17:16:27;;;;;;;2.83;1.30;;;21.20;1.00;;;;;;8341396;28;20182;-79
2022/05/07 17:20:29;;;;;;;1.40;1.20;;;21.10;1.00;;;;;;8322845;28;20183;-82
2022/05/07 17:24:30;;;;;;;1.47;1.00;;;21.00;1.00;;;;;;8326048;28;20321;-78
2022/05/07 17:28:31;;;;;;;1.40;1.30;;;21.20;1.00;;;;;;8324350;28;20187;-78
2022/05/07 17:32:32;;;;;;;2.07;1.40;;;21.70;1.00;;;;;;8326583;28;20243;-78
2022/05/07 17:36:33;;;;;;;2.47;1.47;;;22.20;1.00;;;;;;8330007;28;20186;-77
2022/05/07 17:40:34;;;;;;;1.60;1.20;;;22.60;1.00;;;;;;8327522;28;20237;-79
2022/05/07 17:44:35;;;;;;;4.73;1.60;;;22.70;1.00;;;;;;8319842;28;20198;-78
2022/05/07 17:52:55;;;;;;;1.43;1.30;;;22.50;1.00;;;;;;8343803;28;20244;-81
2022/05/07 17:56:56;;;;;;;1.83;1.27;;;21.80;1.00;;;;;;8330460;28;20186;-78
2022/05/07 18:00:56;;;;;;;1.43;1.20;;;21.20;6.40;;;;;;8330341;28;20197;-80
2022/05/07 18:04:59;;;;;;;1.60;1.37;;;20.70;26.50;;;;;;8334148;28;20200;-79
2022/05/07 18:09:00;;;;;;;2.57;1.40;;;20.00;92.80;;;;;;8333686;28;20189;-82
2022/05/07 18:13:00;;;;;;;1.40;1.27;;;19.20;99.90;;;;;;8321675;28;20246;-79
2022/05/07 18:17:01;;;;;;;1.50;1.40;;;18.50;99.90;;;;;;8335503;28;20294;-79
2022/05/07 18:21:04;;;;;;;1.67;1.40;;;17.90;99.90;;;;;;8336489;28;20200;-76
2022/05/07 18:25:08;;;;;;;1.60;1.30;;;17.40;99.90;;;;;;8332237;28;20255;-77
2022/05/07 18:29:11;;;;;;;1.87;1.57;;;16.90;1.00;;;;;;8337420;28;20191;-77
2022/05/07 18:33:13;;;;;;;3.73;1.50;;;16.50;1.00;;;;;;8329530;28;20217;-77
2022/05/07 18:45:52;;;;;;;3.93;3.40;;;15.40;99.90;;;;;;8340844;28;20225;-78
2022/05/07 18:49:53;;;;;;;3.07;2.70;;;15.10;99.90;;;;;;8325999;28;20249;-77
2022/05/07 18:53:53;;;;;;;3.30;2.43;;;14.80;99.90;;;;;;8339833;28;20207;-79
2022/05/07 19:02:14;;;;;;;2.43;2.20;;;14.40;99.90;;;;;;8329309;28;20248;-80
2022/05/07 19:06:15;;;;;;;3.73;2.20;;;14.30;99.90;;;;;;8329057;28;20209;-80
2022/05/07 19:10:17;;;;;;;2.77;2.20;;;14.10;99.90;;;;;;8326042;28;20179;-80
2022/05/07 19:14:18;;;;;;;3.03;2.17;;;13.90;99.90;;;;;;8324760;28;20292;-79
2022/05/07 19:18:22;;;;;;;2.00;1.77;;;13.70;1.00;;;;;;8330615;28;20181;-79
2022/05/07 19:22:23;;;;;;;2.57;1.97;;;13.40;1.00;;;;;;8325991;28;20237;-79
2022/05/07 19:26:24;;;;;;;2.27;2.07;;;13.30;1.00;;;;;;8328110;28;20209;-78
2022/05/07 19:30:25;;;;;;;2.50;2.30;;;13.10;1.00;;;;;;8333351;28;20185;-80
2022/05/07 19:34:26;;;;;;;2.07;1.83;;;13.00;1.00;;;;;;8325306;28;20198;-79
2022/05/07 19:38:26;;;;;;;3.83;2.03;;;12.90;1.00;;;;;;8324981;28;20208;-80
2022/05/07 19:42:27;;;;;;;2.37;2.07;;;12.80;15.30;;;;;;8322915;28;20205;-79
2022/05/07 19:46:28;;;;;;;3.03;2.07;;;12.60;48.90;;;;;;8328159;28;20206;-79
2022/05/07 19:50:29;;;;;;;1.90;1.70;;;12.50;99.90;;;;;;8338952;28;20211;-80
2022/05/07 19:54:31;;;;;;;2.30;2.10;;;12.30;99.90;;;;;;8339529;28;20197;-79
2022/05/07 19:58:32;;;;;;;2.47;2.20;;;12.20;99.90;;;;;;8322090;28;20307;-80
2022/05/07 20:02:32;;;;;;;2.47;2.27;;;12.00;99.90;;;;;;8326856;28;20636;-80
2022/05/07 20:06:34;;;;;;;3.00;2.43;;;11.90;99.90;;;;;;8324897;28;20224;-80
2022/05/07 20:10:37;;;;;;;2.37;2.17;;;11.90;99.90;;;;;;8328662;28;20191;-80
2022/05/07 20:14:38;;;;;;;2.70;2.20;;;11.80;99.90;;;;;;8324833;28;20630;-80
2022/05/07 20:18:39;;;;;;;2.60;2.37;;;11.70;99.90;;;;;;8322106;28;20192;-80
2022/05/07 20:22:40;;;;;;;2.83;2.60;;;11.60;99.90;;;;;;8332996;28;20244;-79
2022/05/07 20:26:41;;;;;;;4.60;2.73;;;11.50;99.90;;;;;;8327094;28;20214;-79
2022/05/07 20:30:42;;;;;;;3.10;2.80;;;11.30;1.00;;;;;;8329555;28;20271;-80
2022/05/07 20:34:43;;;;;;;3.23;2.70;;;11.20;1.00;;;;;;8329332;28;20190;-80
2022/05/07 20:38:44;;;;;;;4.80;2.73;;;11.10;1.00;;;;;;8326715;28;20292;-78
2022/05/07 20:42:45;;;;;;;5.07;3.27;;;11.00;1.00;;;;;;8324677;28;20280;-79
2022/05/07 20:46:46;;;;;;;2.90;2.60;;;10.90;35.00;;;;;;8322241;28;20207;-80
2022/05/07 20:50:46;;;;;;;3.37;2.87;;;10.80;99.90;;;;;;8325043;28;20189;-78
2022/05/07 20:54:47;;;;;;;5.03;3.17;;;10.70;99.90;;;;;;8329761;28;20185;-79
2022/05/07 20:58:50;;;;;;;3.50;3.00;;;10.60;99.90;;;;;;8328930;28;20190;-79
2022/05/07 21:02:51;;;;;;;3.70;2.93;;;10.40;1.00;;;;;;8331744;28;20208;-79
2022/05/07 21:06:52;;;;;;;5.80;2.93;;;10.30;91.00;;;;;;8325407;28;20202;-79
2022/05/07 21:10:54;;;;;;;4.67;3.27;;;10.30;99.90;;;;;;8330505;28;20184;-79
2022/05/07 21:14:54;;;;;;;4.40;3.07;;;10.40;99.90;;;;;;8347844;28;20177;-77
2022/05/07 21:18:57;;;;;;;4.57;3.07;;;10.50;99.90;;;;;;8339028;28;20244;-79
2022/05/07 21:22:58;;;;;;;3.77;2.87;;;10.60;45.70;;;;;;8324796;28;20181;-77
2022/05/07 21:26:59;;;;;;;5.13;3.57;;;10.70;1.00;;;;;;8329138;28;20220;-78
2022/05/07 21:31:01;;;;;;;4.60;3.50;;;10.70;1.00;;;;;;8329329;28;20178;-79
2022/05/07 21:35:02;;;;;;;4.97;3.50;;;10.60;62.70;;;;;;8329598;28;20285;-79
2022/05/07 21:39:04;;;;;;;6.10;3.50;;;10.50;99.90;;;;;;8338436;28;20308;-78
2022/05/07 21:43:07;;;;;;;4.77;3.83;;;10.40;99.90;;;;;;8327654;28;20202;-78
2022/05/07 21:47:08;;;;;;;5.93;4.50;;;10.30;99.90;;;;;;8332653;28;20218;-78
2022/05/07 21:51:29;;;;;;;8.90;6.23;;;10.30;1.00;;;;;;8352129;28;20216;-79
2022/05/07 21:55:30;;;;;;;5.93;4.70;;;10.40;99.90;;;;;;8328277;28;20193;-79
2022/05/07 21:59:31;;;;;;;13.17;8.77;;;10.20;99.90;;;;;;8328915;28;20182;-79